Pagrindinis puslapis
METAR-TAF:

METAR-TAF

Oro uostai :

Perudža, Italija

platuma: 43-05N, ilguma: 012-30E, Aukštis: 208 m

Dabartinis oras

Ataskaita buvo paskelbta 40 minutes, ne 17:50 UTC
Vėjas 10 kt iš Šiaurės Rytų
Temperatūra 25°C
Drėgmė 41%
Slėgis 1012 hPa
Matomumas 10 km arba daugiau

METAR: LIRZ 141750Z AUTO 04010KT 9999 NCD 25/11 Q1012

Laikas: 20:30 (18:30 UTC)

Prognozė

Ataskaita buvo paskelbta 1 valandą ir 30 minutes, ne 17:00 UTC
Prognozė galioja nuo 14 metu 18 UTC su 15 metu 18 UTC
Vėjas 10 kt iš Šiaurės/Šiaurės Rytų
Matomumas 10 km arba daugiau
Išsisklaidę debesys ne aukštis 5000 ft
Tapsmas
nuo 14 metu 18 UTC su 14 metu 20 UTC
Vėjas 5 kt nuo kintamojo kryptimis
Tapsmas
nuo 15 metu 09 UTC su 15 metu 11 UTC
Vėjas 10 kt iš Pietų/Pietvakarių

TAF: LIRZ 141700Z 1418/1518 03010KT 9999 SCT050 BECMG 1418/1420 VRB05KT BECMG 1509/1511 20010KT

Orai ataskaitas ir orų prognozės (METAR, TAF).

turimą stotys yra geltonos ir raudonos taškus žemėlapyje.

Perkelti pele per norėdami pamatyti stoties vardą.

Tada spustelėkite, norėdami matyti oro stebėjimo ir prognozės.

Norėdami pakeisti žemėlapį: spustelėkite ant žalios mygtukų su juodo kryžiaus žemyn,; žalią mygtuką su brūkšneliu, jei norite nutolinti; arba žalių rodyklių gretimoms žemėlapius.


METAR-TAF: